sensor_id;sensor_type;location;lat;lon;timestamp;pressure;altitude;pressure_sealevel;temperature;humidity
43161;BME280;40968;52.342;5.528;2023-04-01T00:01:23;99046.50;;;9.89;88.08
43161;BME280;40968;52.342;5.528;2023-04-01T00:03:49;99024.78;;;9.74;88.12
43161;BME280;40968;52.342;5.528;2023-04-01T00:06:17;98972.34;;;9.45;88.08
43161;BME280;40968;52.342;5.528;2023-04-01T00:08:46;99047.31;;;9.90;88.20
43161;BME280;40968;52.342;5.528;2023-04-01T00:11:12;98917.34;;;9.07;88.05
43161;BME280;40968;52.342;5.528;2023-04-01T00:13:40;99046.50;;;9.89;87.93
43161;BME280;40968;52.342;5.528;2023-04-01T00:16:07;99044.81;;;9.88;87.88
43161;BME280;40968;52.342;5.528;2023-04-01T00:18:34;99047.47;;;9.88;87.89
43161;BME280;40968;52.342;5.528;2023-04-01T00:21:00;98991.00;;;9.55;87.84
43161;BME280;40968;52.342;5.528;2023-04-01T00:23:27;98985.56;;;9.47;87.87
43161;BME280;40968;52.342;5.528;2023-04-01T00:25:55;98933.84;;;9.20;87.71
43161;BME280;40968;52.342;5.528;2023-04-01T00:28:22;99055.50;;;9.88;87.93
43161;BME280;40968;52.342;5.528;2023-04-01T00:30:48;99050.16;;;9.88;87.82
43161;BME280;40968;52.342;5.528;2023-04-01T00:33:15;98969.44;;;9.39;87.85
43161;BME280;40968;52.342;5.528;2023-04-01T00:35:42;99013.19;;;9.66;87.88
43161;BME280;40968;52.342;5.528;2023-04-01T00:38:10;99049.34;;;9.88;87.95
43161;BME280;40968;52.342;5.528;2023-04-01T00:40:39;99054.53;;;9.89;88.06
43161;BME280;40968;52.342;5.528;2023-04-01T00:43:12;99012.16;;;9.67;87.64
43161;BME280;40968;52.342;5.528;2023-04-01T00:45:40;98941.16;;;9.18;87.78
43161;BME280;40968;52.342;5.528;2023-04-01T00:48:11;99058.50;;;9.85;87.64
43161;BME280;40968;52.342;5.528;2023-04-01T00:50:40;99019.50;;;9.65;87.82
43161;BME280;40968;52.342;5.528;2023-04-01T00:53:08;99054.97;;;9.85;87.72
43161;BME280;40968;52.342;5.528;2023-04-01T00:55:38;99069.88;;;9.87;87.65
43161;BME280;40968;52.342;5.528;2023-04-01T00:58:09;99064.53;;;9.87;87.60
43161;BME280;40968;52.342;5.528;2023-04-01T01:00:40;99064.53;;;9.87;87.73
43161;BME280;40968;52.342;5.528;2023-04-01T01:03:06;99071.56;;;9.88;87.63
43161;BME280;40968;52.342;5.528;2023-04-01T01:05:43;99063.53;;;9.88;87.50
43161;BME280;40968;52.342;5.528;2023-04-01T01:08:16;99072.72;;;9.86;87.62
43161;BME280;40968;52.342;5.528;2023-04-01T01:10:49;99064.53;;;9.87;87.75
43161;BME280;40968;52.342;5.528;2023-04-01T01:13:18;99015.38;;;9.52;87.57
43161;BME280;40968;52.342;5.528;2023-04-01T01:15:52;99009.63;;;9.47;87.60
43161;BME280;40968;52.342;5.528;2023-04-01T01:18:28;99076.38;;;9.85;87.50
43161;BME280;40968;52.342;5.528;2023-04-01T01:21:26;99034.03;;;9.62;87.44
43161;BME280;40968;52.342;5.528;2023-04-01T01:26:59;99077.44;;;9.74;87.38
43161;BME280;40968;52.342;5.528;2023-04-01T01:32:33;99074.78;;;9.74;87.62
43161;BME280;40968;52.342;5.528;2023-04-01T01:35:16;98887.75;;;8.54;87.32
43161;BME280;40968;52.342;5.528;2023-04-01T01:37:46;99088.31;;;9.72;87.58
43161;BME280;40968;52.342;5.528;2023-04-01T01:40:16;99093.66;;;9.72;87.49
43161;BME280;40968;52.342;5.528;2023-04-01T01:42:46;99089.28;;;9.71;87.60
43161;BME280;40968;52.342;5.528;2023-04-01T01:45:14;99084.09;;;9.70;87.59
43161;BME280;40968;52.342;5.528;2023-04-01T01:47:43;99062.81;;;9.50;87.42
43161;BME280;40968;52.342;5.528;2023-04-01T01:50:14;99057.75;;;9.47;87.64
43161;BME280;40968;52.342;5.528;2023-04-01T01:52:42;99087.75;;;9.69;87.68
43161;BME280;40968;52.342;5.528;2023-04-01T01:55:24;99045.16;;;9.39;87.59
43161;BME280;40968;52.342;5.528;2023-04-01T01:57:52;99090.75;;;9.66;87.48
43161;BME280;40968;52.342;5.528;2023-04-01T02:00:19;99106.63;;;9.67;87.56
43161;BME280;40968;52.342;5.528;2023-04-01T02:02:48;99097.75;;;9.67;87.54
43161;BME280;40968;52.342;5.528;2023-04-01T02:05:20;98946.09;;;8.67;87.21
43161;BME280;40968;52.342;5.528;2023-04-01T02:07:52;99096.53;;;9.61;87.32
43161;BME280;40968;52.342;5.528;2023-04-01T02:10:25;99067.38;;;9.40;87.11
43161;BME280;40968;52.342;5.528;2023-04-01T02:12:57;98931.03;;;8.48;87.21
43161;BME280;40968;52.342;5.528;2023-04-01T02:15:28;99103.03;;;9.58;87.05
43161;BME280;40968;52.342;5.528;2023-04-01T02:17:58;99040.78;;;9.20;87.01
43161;BME280;40968;52.342;5.528;2023-04-01T02:20:27;98993.50;;;8.93;87.25
43161;BME280;40968;52.342;5.528;2023-04-01T02:22:56;98998.59;;;8.86;87.24
43161;BME280;40968;52.342;5.528;2023-04-01T02:25:27;99111.75;;;9.60;87.14
43161;BME280;40968;52.342;5.528;2023-04-01T02:27:55;98950.53;;;8.58;86.80
43161;BME280;40968;52.342;5.528;2023-04-01T02:30:24;98981.94;;;8.74;86.79
43161;BME280;40968;52.342;5.528;2023-04-01T02:32:53;99105.31;;;9.53;87.06
43161;BME280;40968;52.342;5.528;2023-04-01T02:35:21;99027.81;;;8.98;87.05
43161;BME280;40968;52.342;5.528;2023-04-01T02:37:50;99118.97;;;9.50;87.11
43161;BME280;40968;52.342;5.528;2023-04-01T02:40:18;99104.50;;;9.43;87.18
43161;BME280;40968;52.342;5.528;2023-04-01T02:42:45;99116.31;;;9.50;87.17
43161;BME280;40968;52.342;5.528;2023-04-01T02:45:13;99119.97;;;9.49;87.05
43161;BME280;40968;52.342;5.528;2023-04-01T02:47:40;99080.13;;;9.28;87.15
43161;BME280;40968;52.342;5.528;2023-04-01T02:50:07;99122.09;;;9.45;87.19
43161;BME280;40968;52.342;5.528;2023-04-01T02:52:35;99105.25;;;9.35;87.05
43161;BME280;40968;52.342;5.528;2023-04-01T02:55:04;99067.59;;;9.01;87.16
43161;BME280;40968;52.342;5.528;2023-04-01T02:57:31;99131.25;;;9.43;87.24
43161;BME280;40968;52.342;5.528;2023-04-01T02:59:57;99095.75;;;9.23;87.40
43161;BME280;40968;52.342;5.528;2023-04-01T03:02:24;99078.78;;;9.14;87.34
43161;BME280;40968;52.342;5.528;2023-04-01T03:04:50;99063.63;;;9.05;87.17
43161;BME280;40968;52.342;5.528;2023-04-01T03:07:17;99102.94;;;9.22;87.29
43161;BME280;40968;52.342;5.528;2023-04-01T03:09:44;99142.81;;;9.43;87.17
43161;BME280;40968;52.342;5.528;2023-04-01T03:12:12;99142.81;;;9.43;87.31
43161;BME280;40968;52.342;5.528;2023-04-01T03:14:38;99114.31;;;9.24;87.28
43161;BME280;40968;52.342;5.528;2023-04-01T03:17:05;99148.00;;;9.45;87.45
43161;BME280;40968;52.342;5.528;2023-04-01T03:19:32;99080.94;;;9.01;87.15
43161;BME280;40968;52.342;5.528;2023-04-01T03:21:58;99127.09;;;9.31;87.34
43161;BME280;40968;52.342;5.528;2023-04-01T03:24:25;99122.34;;;9.24;87.26
43161;BME280;40968;52.342;5.528;2023-04-01T03:26:51;99161.94;;;9.49;87.34
43161;BME280;40968;52.342;5.528;2023-04-01T03:29:19;99158.25;;;9.50;87.53
43161;BME280;40968;52.342;5.528;2023-04-01T03:31:46;99159.09;;;9.50;87.21
43161;BME280;40968;52.342;5.528;2023-04-01T03:34:13;99108.72;;;9.18;87.16
43161;BME280;40968;52.342;5.528;2023-04-01T03:36:39;98989.34;;;8.43;87.23
43161;BME280;40968;52.342;5.528;2023-04-01T03:39:06;99154.41;;;9.34;87.32
43161;BME280;40968;52.342;5.528;2023-04-01T03:41:35;99121.50;;;9.24;87.21
43161;BME280;40968;52.342;5.528;2023-04-01T03:44:02;99172.31;;;9.52;87.16
43161;BME280;40968;52.342;5.528;2023-04-01T03:46:30;99168.94;;;9.50;87.25
43161;BME280;40968;52.342;5.528;2023-04-01T03:48:57;99076.09;;;8.86;87.10
43161;BME280;40968;52.342;5.528;2023-04-01T03:51:23;99155.22;;;9.35;87.21
43161;BME280;40968;52.342;5.528;2023-04-01T03:53:50;99168.16;;;9.39;87.29
43161;BME280;40968;52.342;5.528;2023-04-01T03:56:16;99188.53;;;9.40;87.33
43161;BME280;40968;52.342;5.528;2023-04-01T03:58:43;99186.81;;;9.49;87.31
43161;BME280;40968;52.342;5.528;2023-04-01T04:01:14;99174.91;;;9.34;87.40
43161;BME280;40968;52.342;5.528;2023-04-01T04:03:43;99146.44;;;9.15;87.47
43161;BME280;40968;52.342;5.528;2023-04-01T04:06:11;99157.41;;;9.21;87.50
43161;BME280;40968;52.342;5.528;2023-04-01T04:08:38;99131.72;;;9.01;87.35
43161;BME280;40968;52.342;5.528;2023-04-01T04:11:05;99156.28;;;9.14;87.48
43161;BME280;40968;52.342;5.528;2023-04-01T04:13:31;99194.91;;;9.29;87.58
43161;BME280;40968;52.342;5.528;2023-04-01T04:15:58;99175.00;;;9.14;87.58
43161;BME280;40968;52.342;5.528;2023-04-01T04:18:25;99208.84;;;9.33;87.86
43161;BME280;40968;52.342;5.528;2023-04-01T04:20:53;99127.13;;;8.83;87.84
43161;BME280;40968;52.342;5.528;2023-04-01T04:23:20;99178.25;;;9.08;88.18
43161;BME280;40968;52.342;5.528;2023-04-01T04:25:54;99179.94;;;9.09;87.79
43161;BME280;40968;52.342;5.528;2023-04-01T04:28:21;99224.19;;;9.31;88.09
43161;BME280;40968;52.342;5.528;2023-04-01T04:30:47;99183.88;;;9.05;87.99
43161;BME280;40968;52.342;5.528;2023-04-01T04:33:14;99171.94;;;8.99;88.16
43161;BME280;40968;52.342;5.528;2023-04-01T04:35:40;99237.53;;;9.31;88.06
43161;BME280;40968;52.342;5.528;2023-04-01T04:38:08;99211.72;;;9.12;88.18
43161;BME280;40968;52.342;5.528;2023-04-01T04:40:35;99241.09;;;9.32;88.23
43161;BME280;40968;52.342;5.528;2023-04-01T04:43:02;99188.53;;;9.03;88.12
43161;BME280;40968;52.342;5.528;2023-04-01T04:45:29;99204.84;;;9.00;87.93
43161;BME280;40968;52.342;5.528;2023-04-01T04:47:55;99252.03;;;9.28;88.19
43161;BME280;40968;52.342;5.528;2023-04-01T04:50:23;99250.38;;;9.27;88.14
43161;BME280;40968;52.342;5.528;2023-04-01T04:52:50;99248.69;;;9.26;88.19
43161;BME280;40968;52.342;5.528;2023-04-01T04:55:21;99262.75;;;9.28;88.34
43161;BME280;40968;52.342;5.528;2023-04-01T04:57:47;99190.25;;;8.84;88.24
43161;BME280;40968;52.342;5.528;2023-04-01T05:00:14;99271.31;;;9.32;88.48
43161;BME280;40968;52.342;5.528;2023-04-01T05:02:41;99262.31;;;9.23;88.30
43161;BME280;40968;52.342;5.528;2023-04-01T05:05:08;99241.13;;;9.12;88.29
43161;BME280;40968;52.342;5.528;2023-04-01T05:07:35;99240.13;;;9.13;88.09
43161;BME280;40968;52.342;5.528;2023-04-01T05:10:03;99175.94;;;8.66;88.49
43161;BME280;40968;52.342;5.528;2023-04-01T05:12:31;99254.59;;;9.20;88.29
43161;BME280;40968;52.342;5.528;2023-04-01T05:15:01;99035.09;;;7.81;88.11
43161;BME280;40968;52.342;5.528;2023-04-01T05:17:28;99241.13;;;9.12;88.35
43161;BME280;40968;52.342;5.528;2023-04-01T05:19:54;99302.38;;;9.43;88.47
43161;BME280;40968;52.342;5.528;2023-04-01T05:22:21;99298.72;;;9.44;88.36
43161;BME280;40968;52.342;5.528;2023-04-01T05:24:48;99274.16;;;9.31;88.25
43161;BME280;40968;52.342;5.528;2023-04-01T05:27:15;99302.13;;;9.46;88.35
43161;BME280;40968;52.342;5.528;2023-04-01T05:29:43;99220.91;;;8.90;88.32
43161;BME280;40968;52.342;5.528;2023-04-01T05:32:09;99316.47;;;9.45;88.45
43161;BME280;40968;52.342;5.528;2023-04-01T05:34:36;99311.13;;;9.45;88.46
43161;BME280;40968;52.342;5.528;2023-04-01T05:37:03;99290.47;;;9.27;88.47
43161;BME280;40968;52.342;5.528;2023-04-01T05:39:29;99269.25;;;9.16;88.43
43161;BME280;40968;52.342;5.528;2023-04-01T05:41:56;99279.22;;;9.14;88.38
43161;BME280;40968;52.342;5.528;2023-04-01T05:44:22;99323.50;;;9.46;88.66
43161;BME280;40968;52.342;5.528;2023-04-01T05:46:51;99335.75;;;9.49;88.85
43161;BME280;40968;52.342;5.528;2023-04-01T05:49:17;99255.75;;;8.98;88.74
43161;BME280;40968;52.342;5.528;2023-04-01T05:51:44;99304.81;;;9.26;88.78
43161;BME280;40968;52.342;5.528;2023-04-01T05:54:11;99357.56;;;9.44;88.98
43161;BME280;40968;52.342;5.528;2023-04-01T05:56:37;99348.56;;;9.45;89.12
43161;BME280;40968;52.342;5.528;2023-04-01T05:59:04;99139.69;;;8.14;89.23
43161;BME280;40968;52.342;5.528;2023-04-01T06:01:30;99315.78;;;9.23;89.46
43161;BME280;40968;52.342;5.528;2023-04-01T06:03:58;99328.47;;;9.21;89.61
43161;BME280;40968;52.342;5.528;2023-04-01T06:06:26;99357.84;;;9.41;89.74
43161;BME280;40968;52.342;5.528;2023-04-01T06:08:56;99233.28;;;8.61;89.84
43161;BME280;40968;52.342;5.528;2023-04-01T06:11:28;99247.63;;;8.70;90.04
43161;BME280;40968;52.342;5.528;2023-04-01T06:14:10;99322.28;;;9.11;90.20
43161;BME280;40968;52.342;5.528;2023-04-01T06:16:46;99379.25;;;9.41;90.36
43161;BME280;40968;52.342;5.528;2023-04-01T06:19:24;99381.78;;;9.42;90.52
43161;BME280;40968;52.342;5.528;2023-04-01T06:22:13;99354.22;;;9.22;90.53
43161;BME280;40968;52.342;5.528;2023-04-01T06:24:54;99386.97;;;9.44;90.70
43161;BME280;40968;52.342;5.528;2023-04-01T06:27:40;99357.59;;;9.24;90.74
43161;BME280;40968;52.342;5.528;2023-04-01T06:30:28;99389.66;;;9.44;90.86
43161;BME280;40968;52.342;5.528;2023-04-01T06:33:05;99395.97;;;9.43;90.96
43161;BME280;40968;52.342;5.528;2023-04-01T06:35:58;99403.47;;;9.39;90.98
43161;BME280;40968;52.342;5.528;2023-04-01T06:39:00;99409.22;;;9.35;91.28
43161;BME280;40968;52.342;5.528;2023-04-01T06:41:36;99412.19;;;9.32;91.26
43161;BME280;40968;52.342;5.528;2023-04-01T06:44:14;99416.66;;;9.31;91.30
43161;BME280;40968;52.342;5.528;2023-04-01T06:46:45;99374.88;;;9.01;91.39
43161;BME280;40968;52.342;5.528;2023-04-01T06:49:28;99380.22;;;9.01;91.34
43161;BME280;40968;52.342;5.528;2023-04-01T06:52:02;99440.88;;;9.29;91.43
43161;BME280;40968;52.342;5.528;2023-04-01T06:54:36;99431.72;;;9.32;91.18
43161;BME280;40968;52.342;5.528;2023-04-01T06:57:15;99435.25;;;9.33;91.21
43161;BME280;40968;52.342;5.528;2023-04-01T06:59:44;99442.28;;;9.34;91.05
43161;BME280;40968;52.342;5.528;2023-04-01T07:02:21;99349.72;;;8.74;90.97
43161;BME280;40968;52.342;5.528;2023-04-01T07:04:51;99368.84;;;8.79;90.88
43161;BME280;40968;52.342;5.528;2023-04-01T07:07:28;99375.88;;;8.90;91.14
43161;BME280;40968;52.342;5.528;2023-04-01T07:09:57;99271.56;;;8.21;90.90
43161;BME280;40968;52.342;5.528;2023-04-01T07:12:33;99455.94;;;9.40;91.04
43161;BME280;40968;52.342;5.528;2023-04-01T07:15:11;99431.75;;;9.22;91.01
43161;BME280;40968;52.342;5.528;2023-04-01T07:17:42;99424.41;;;9.15;91.05
43161;BME280;40968;52.342;5.528;2023-04-01T07:20:16;99479.75;;;9.43;91.10
43161;BME280;40968;52.342;5.528;2023-04-01T07:22:47;99484.22;;;9.43;91.23
43161;BME280;40968;52.342;5.528;2023-04-01T07:25:17;99411.59;;;8.99;90.88
43161;BME280;40968;52.342;5.528;2023-04-01T07:27:46;99496.63;;;9.44;91.02
43161;BME280;40968;52.342;5.528;2023-04-01T07:30:14;99425.66;;;9.01;91.16
43161;BME280;40968;52.342;5.528;2023-04-01T07:32:44;99498.31;;;9.45;91.22
43161;BME280;40968;52.342;5.528;2023-04-01T07:35:22;99505.34;;;9.46;91.23
43161;BME280;40968;52.342;5.528;2023-04-01T07:38:02;99466.75;;;9.19;91.22
43161;BME280;40968;52.342;5.528;2023-04-01T07:40:40;99516.75;;;9.48;91.25
43161;BME280;40968;52.342;5.528;2023-04-01T07:46:22;99488.72;;;9.33;90.86
43161;BME280;40968;52.342;5.528;2023-04-01T07:49:00;99438.00;;;8.92;90.68
43161;BME280;40968;52.342;5.528;2023-04-01T07:51:36;99531.94;;;9.57;90.98
43161;BME280;40968;52.342;5.528;2023-04-01T07:54:10;99538.31;;;9.56;90.68
43161;BME280;40968;52.342;5.528;2023-04-01T07:56:43;99542.66;;;9.57;90.74
43161;BME280;40968;52.342;5.528;2023-04-01T07:59:17;99543.38;;;9.59;90.62
43161;BME280;40968;52.342;5.528;2023-04-01T08:01:52;99500.53;;;9.20;90.59
43161;BME280;40968;52.342;5.528;2023-04-01T08:04:35;99549.69;;;9.58;90.43
43161;BME280;40968;52.342;5.528;2023-04-01T08:07:11;99520.53;;;9.36;90.39
43161;BME280;40968;52.342;5.528;2023-04-01T08:09:49;99524.47;;;9.41;90.29
43161;BME280;40968;52.342;5.528;2023-04-01T08:12:27;99564.06;;;9.67;90.71
43161;BME280;40968;52.342;5.528;2023-04-01T08:15:09;99563.94;;;9.69;90.33
43161;BME280;40968;52.342;5.528;2023-04-01T08:17:45;99539.97;;;9.48;90.31
43161;BME280;40968;52.342;5.528;2023-04-01T08:20:27;99559.13;;;9.62;90.07
43161;BME280;40968;52.342;5.528;2023-04-01T08:22:59;99544.75;;;9.44;89.74
43161;BME280;40968;52.342;5.528;2023-04-01T08:25:30;99541.09;;;9.55;89.74
43161;BME280;40968;52.342;5.528;2023-04-01T08:28:03;99591.00;;;9.85;89.91
43161;BME280;40968;52.342;5.528;2023-04-01T08:30:40;99590.69;;;9.88;89.70
43161;BME280;40968;52.342;5.528;2023-04-01T08:33:13;99602.66;;;9.94;89.66
43161;BME280;40968;52.342;5.528;2023-04-01T08:35:46;99595.75;;;9.91;89.23
43161;BME280;40968;52.342;5.528;2023-04-01T08:38:18;99607.06;;;10.05;89.09
43161;BME280;40968;52.342;5.528;2023-04-01T08:40:56;99611.16;;;10.09;88.85
43161;BME280;40968;52.342;5.528;2023-04-01T08:46:35;99612.13;;;10.27;88.78
43161;BME280;40968;52.342;5.528;2023-04-01T08:49:20;99429.06;;;9.12;87.95
43161;BME280;40968;52.342;5.528;2023-04-01T08:52:13;99618.47;;;10.46;88.53
43161;BME280;40968;52.342;5.528;2023-04-01T08:55:09;99458.91;;;9.57;87.98
43161;BME280;40968;52.342;5.528;2023-04-01T08:57:53;99624.34;;;10.59;87.70
43161;BME280;40968;52.342;5.528;2023-04-01T09:00:29;99589.31;;;10.43;87.47
43161;BME280;40968;52.342;5.528;2023-04-01T09:03:19;99631.53;;;10.69;87.41
43161;BME280;40968;52.342;5.528;2023-04-01T09:06:09;99632.09;;;10.72;86.82
43161;BME280;40968;52.342;5.528;2023-04-01T09:08:52;99602.50;;;10.54;86.58
43161;BME280;40968;52.342;5.528;2023-04-01T09:11:33;99607.03;;;10.54;85.86
43161;BME280;40968;52.342;5.528;2023-04-01T09:17:21;99592.97;;;10.42;86.00
43161;BME280;40968;52.342;5.528;2023-04-01T09:20:07;99649.88;;;10.73;85.70
43161;BME280;40968;52.342;5.528;2023-04-01T09:22:44;99644.50;;;10.64;85.72
43161;BME280;40968;52.342;5.528;2023-04-01T09:25:54;99633.38;;;10.58;86.27
43161;BME280;40968;52.342;5.528;2023-04-01T09:28:28;99623.94;;;10.54;86.33
43161;BME280;40968;52.342;5.528;2023-04-01T09:31:04;99670.84;;;10.78;86.07
43161;BME280;40968;52.342;5.528;2023-04-01T09:36:44;99591.69;;;10.26;86.22
43161;BME280;40968;52.342;5.528;2023-04-01T09:39:26;99655.56;;;10.51;86.17
43161;BME280;40968;52.342;5.528;2023-04-01T09:42:17;99632.13;;;10.33;86.61
43161;BME280;40968;52.342;5.528;2023-04-01T09:44:56;99689.81;;;10.67;86.97
43161;BME280;40968;52.342;5.528;2023-04-01T09:47:41;99694.75;;;10.61;87.00
43161;BME280;40968;52.342;5.528;2023-04-01T09:50:35;99666.56;;;10.38;87.12
43161;BME280;40968;52.342;5.528;2023-04-01T09:53:14;99697.56;;;10.50;87.52
43161;BME280;40968;52.342;5.528;2023-04-01T09:58:43;99595.50;;;9.75;87.83
43161;BME280;40968;52.342;5.528;2023-04-01T10:01:57;99708.81;;;10.44;88.19
43161;BME280;40968;52.342;5.528;2023-04-01T10:11:14;99722.94;;;10.46;88.12
43161;BME280;40968;52.342;5.528;2023-04-01T10:14:01;99598.13;;;9.65;87.78
43161;BME280;40968;52.342;5.528;2023-04-01T10:20:04;99739.00;;;10.46;87.90
43161;BME280;40968;52.342;5.528;2023-04-01T10:22:55;99683.13;;;10.12;87.72
43161;BME280;40968;52.342;5.528;2023-04-01T10:25:52;99742.66;;;10.45;87.66
43161;BME280;40968;52.342;5.528;2023-04-01T10:28:33;99590.66;;;9.49;87.25
43161;BME280;40968;52.342;5.528;2023-04-01T10:31:36;99746.34;;;10.54;86.96
43161;BME280;40968;52.342;5.528;2023-04-01T10:34:27;99752.53;;;10.54;86.39
43161;BME280;40968;52.342;5.528;2023-04-01T10:36:58;99743.53;;;10.45;85.78
43161;BME280;40968;52.342;5.528;2023-04-01T10:39:33;99758.19;;;10.51;85.03
43161;BME280;40968;52.342;5.528;2023-04-01T10:42:18;99650.84;;;9.84;85.11
43161;BME280;40968;52.342;5.528;2023-04-01T10:45:20;99651.53;;;9.86;85.13
43161;BME280;40968;52.342;5.528;2023-04-01T10:48:14;99681.72;;;10.08;85.06
43161;BME280;40968;52.342;5.528;2023-04-01T10:51:09;99770.03;;;10.58;85.36
43161;BME280;40968;52.342;5.528;2023-04-01T10:53:44;99767.34;;;10.58;85.44
43161;BME280;40968;52.342;5.528;2023-04-01T10:56:34;99762.41;;;10.54;85.44
43161;BME280;40968;52.342;5.528;2023-04-01T11:02:43;99778.38;;;10.65;85.17
43161;BME280;40968;52.342;5.528;2023-04-01T11:08:46;99788.78;;;10.68;85.47
43161;BME280;40968;52.342;5.528;2023-04-01T11:14:48;99780.63;;;10.60;85.59
43161;BME280;40968;52.342;5.528;2023-04-01T11:21:05;99802.78;;;10.72;85.78
43161;BME280;40968;52.342;5.528;2023-04-01T11:23:50;99799.38;;;10.70;85.67
43161;BME280;40968;52.342;5.528;2023-04-01T11:26:32;99801.34;;;10.68;85.70
43161;BME280;40968;52.342;5.528;2023-04-01T11:29:22;99811.78;;;10.71;86.13
43161;BME280;40968;52.342;5.528;2023-04-01T11:31:59;99822.50;;;10.71;85.94
43161;BME280;40968;52.342;5.528;2023-04-01T11:34:50;99786.94;;;10.49;85.97
43161;BME280;40968;52.342;5.528;2023-04-01T11:37:28;99816.84;;;10.74;85.79
43161;BME280;40968;52.342;5.528;2023-04-01T11:40:08;99823.09;;;10.74;85.91
43161;BME280;40968;52.342;5.528;2023-04-01T11:42:42;99782.44;;;10.50;86.16
43161;BME280;40968;52.342;5.528;2023-04-01T11:45:20;99802.16;;;10.58;85.96
43161;BME280;40968;52.342;5.528;2023-04-01T11:50:50;99843.94;;;10.81;86.07
43161;BME280;40968;52.342;5.528;2023-04-01T11:53:29;99814.34;;;10.63;86.28
43161;BME280;40968;52.342;5.528;2023-04-01T11:56:08;99846.22;;;10.85;86.05
43161;BME280;40968;52.342;5.528;2023-04-01T11:58:58;99846.22;;;10.85;86.10
43161;BME280;40968;52.342;5.528;2023-04-01T12:01:35;99858.91;;;10.93;86.16
43161;BME280;40968;52.342;5.528;2023-04-01T12:07:14;99794.72;;;10.62;86.15
43161;BME280;40968;52.342;5.528;2023-04-01T12:09:52;99751.81;;;10.33;85.85
43161;BME280;40968;52.342;5.528;2023-04-01T12:12:27;99725.00;;;10.13;85.78
43161;BME280;40968;52.342;5.528;2023-04-01T12:15:05;99865.28;;;11.02;85.98
43161;BME280;40968;52.342;5.528;2023-04-01T12:17:44;99828.72;;;10.81;86.45
43161;BME280;40968;52.342;5.528;2023-04-01T12:20:28;99829.56;;;10.82;86.32
43161;BME280;40968;52.342;5.528;2023-04-01T12:23:05;99787.78;;;10.59;86.78
43161;BME280;40968;52.342;5.528;2023-04-01T12:25:57;99874.84;;;10.94;86.61
43161;BME280;40968;52.342;5.528;2023-04-01T12:28:37;99845.06;;;10.68;86.61
43161;BME280;40968;52.342;5.528;2023-04-01T12:31:19;99764.88;;;10.16;86.99
43161;BME280;40968;52.342;5.528;2023-04-01T12:33:59;99887.16;;;10.87;87.00
43161;BME280;40968;52.342;5.528;2023-04-01T12:36:37;99788.28;;;10.24;87.02
43161;BME280;40968;52.342;5.528;2023-04-01T12:42:19;99910.53;;;10.85;86.96
43161;BME280;40968;52.342;5.528;2023-04-01T12:44:53;99895.16;;;10.77;87.27
43161;BME280;40968;52.342;5.528;2023-04-01T12:50:53;99874.41;;;10.60;87.31
43161;BME280;40968;52.342;5.528;2023-04-01T12:53:36;99914.78;;;10.98;87.63
43161;BME280;40968;52.342;5.528;2023-04-01T12:56:09;99705.19;;;9.75;87.55
43161;BME280;40968;52.342;5.528;2023-04-01T13:01:48;99845.03;;;10.58;87.73
43161;BME280;40968;52.342;5.528;2023-04-01T13:04:35;99778.09;;;10.08;87.54
43161;BME280;40968;52.342;5.528;2023-04-01T13:07:33;99883.41;;;10.59;87.94
43161;BME280;40968;52.342;5.528;2023-04-01T13:10:13;99935.94;;;10.81;88.32
43161;BME280;40968;52.342;5.528;2023-04-01T13:12:56;99948.34;;;10.82;88.31
43161;BME280;40968;52.342;5.528;2023-04-01T13:15:30;99954.69;;;10.81;88.26
43161;BME280;40968;52.342;5.528;2023-04-01T13:18:03;99932.91;;;10.65;88.43
43161;BME280;40968;52.342;5.528;2023-04-01T13:20:43;99952.41;;;10.76;88.17
43161;BME280;40968;52.342;5.528;2023-04-01T13:23:20;99877.06;;;10.19;88.01
43161;BME280;40968;52.342;5.528;2023-04-01T13:25:57;99985.97;;;10.71;88.34
43161;BME280;40968;52.342;5.528;2023-04-01T13:28:29;99794.09;;;9.57;88.19
43161;BME280;40968;52.342;5.528;2023-04-01T13:31:03;99984.13;;;10.71;88.34
43161;BME280;40968;52.342;5.528;2023-04-01T13:33:42;99985.84;;;10.72;88.23
43161;BME280;40968;52.342;5.528;2023-04-01T13:36:19;99987.69;;;10.72;88.34
43161;BME280;40968;52.342;5.528;2023-04-01T13:39:11;99996.69;;;10.71;88.17
43161;BME280;40968;52.342;5.528;2023-04-01T13:42:00;99880.72;;;9.87;87.19
43161;BME280;40968;52.342;5.528;2023-04-01T13:44:35;99998.63;;;10.59;86.36
43161;BME280;40968;52.342;5.528;2023-04-01T13:47:20;100010.31;;;10.58;86.48
43161;BME280;40968;52.342;5.528;2023-04-01T13:50:15;99883.66;;;9.84;86.37
43161;BME280;40968;52.342;5.528;2023-04-01T13:53:04;99908.81;;;10.03;86.71
43161;BME280;40968;52.342;5.528;2023-04-01T13:55:49;100000.69;;;10.45;86.33
43161;BME280;40968;52.342;5.528;2023-04-01T13:58:34;99980.28;;;10.33;85.98
43161;BME280;40968;52.342;5.528;2023-04-01T14:01:12;100041.09;;;10.64;86.12
43161;BME280;40968;52.342;5.528;2023-04-01T14:03:59;100032.59;;;10.58;85.59
43161;BME280;40968;52.342;5.528;2023-04-01T14:06:34;100007.69;;;10.37;85.92
43161;BME280;40968;52.342;5.528;2023-04-01T14:09:23;99947.09;;;9.93;86.10
43161;BME280;40968;52.342;5.528;2023-04-01T14:11:56;100058.81;;;10.55;86.30
43161;BME280;40968;52.342;5.528;2023-04-01T14:14:36;100061.66;;;10.53;86.40
43161;BME280;40968;52.342;5.528;2023-04-01T14:17:17;100013.19;;;10.14;86.65
43161;BME280;40968;52.342;5.528;2023-04-01T14:20:05;100066.88;;;10.55;86.17
43161;BME280;40968;52.342;5.528;2023-04-01T14:22:46;99995.34;;;10.03;86.20
43161;BME280;40968;52.342;5.528;2023-04-01T14:28:29;100096.84;;;10.49;86.16
43161;BME280;40968;52.342;5.528;2023-04-01T14:31:11;100024.06;;;10.01;86.03
43161;BME280;40968;52.342;5.528;2023-04-01T14:33:46;100068.16;;;10.18;86.20
43161;BME280;40968;52.342;5.528;2023-04-01T14:36:33;100087.09;;;10.26;86.80
43161;BME280;40968;52.342;5.528;2023-04-01T14:39:21;100096.44;;;10.32;86.34
43161;BME280;40968;52.342;5.528;2023-04-01T14:42:00;100097.06;;;10.24;86.54
43161;BME280;40968;52.342;5.528;2023-04-01T14:44:51;100087.41;;;10.12;86.63
43161;BME280;40968;52.342;5.528;2023-04-01T14:47:46;100118.13;;;10.29;86.67
43161;BME280;40968;52.342;5.528;2023-04-01T14:50:16;100123.75;;;10.26;85.82
43161;BME280;40968;52.342;5.528;2023-04-01T14:52:50;100117.53;;;10.25;85.96